Pointe Noire, Canada
Current Conditions -  °F | °C
As of 4:00 AM on Monday 20 Oct 2014 (Local Time) from CYZV Reporting Station
Broken Clouds Broken Clouds  
Wind Chill: 29°   Ceiling: 18000
Heat Index: 36°   Visibility: 15mi
Dew Point: 30°   Wind: 8mph
Humidity: 81%   Direction: 300°WNW
Pressure: 29.55"   Gusts: NA
Location:  50.15°N, 66.43°W
Report Text: CYZV 200800Z 30007KT 15SM BKN180 02/M01 A2955 RMK AC7 SLP010
Loading
Personal Weather Stations






























Interactive Weather Map
Tropical Storm Tracking
New forecast layout! Learn more

10-Day Weather Forecast

Advertisements
Track Severe Weather on mobile